Carson City, Michigan
Current Conditions -  °F | °C
As of 3:33 AM on Saturday 20 Dec 2014 (Local Time) from KAMN Reporting Station
Clear Clear  
Wind Chill: 16°   Ceiling: Unl
Heat Index: 16°   Visibility: 7mi
Dew Point: 16°   Wind: 0mph
Humidity: 97%   Direction: NA
Pressure: 30.29"   Gusts: NA
Location:  43.18°N, 84.85°W
Report Text: KAMN 200833Z AUTO 00000KT 7SM CLR M09/M09 A3029 RMK AO2 T10871091
Loading
Personal Weather Stations






























Interactive Weather Map New forecast layout! Learn more

10-Day Weather Forecast

Advertisements
Track Severe Weather on mobile